createdAt,value
2024-01-28T00:01:59.778Z,1.80
2024-01-28T00:05:01.944Z,1.70
2024-01-28T00:08:07.711Z,2.00
2024-01-28T00:11:09.932Z,2.28
2024-01-28T00:14:12.214Z,1.73
2024-01-28T00:17:14.416Z,2.63
2024-01-28T00:20:16.588Z,1.92
2024-01-28T00:23:18.961Z,1.48
2024-01-28T00:26:21.542Z,2.10
2024-01-28T00:29:30.208Z,1.95
2024-01-28T00:32:32.835Z,1.80
2024-01-28T00:35:35.319Z,2.03
2024-01-28T00:38:38.249Z,1.55
2024-01-28T00:41:40.860Z,1.60
2024-01-28T00:44:43.143Z,2.10
2024-01-28T00:47:45.896Z,1.60
2024-01-28T00:50:48.120Z,1.35
2024-01-28T00:53:50.259Z,1.60
2024-01-28T00:56:57.397Z,1.90
2024-01-28T00:59:59.622Z,1.85
2024-01-28T01:03:02.428Z,1.42
2024-01-28T01:06:07.229Z,1.60
2024-01-28T01:09:09.693Z,1.80
2024-01-28T01:12:11.949Z,1.90
2024-01-28T01:15:14.282Z,1.50
2024-01-28T01:18:16.878Z,1.88
2024-01-28T01:21:19.200Z,2.00
2024-01-28T01:24:21.607Z,1.67
2024-01-28T01:27:23.878Z,1.60
2024-01-28T01:30:26.176Z,1.70
2024-01-28T01:33:28.658Z,1.73
2024-01-28T01:36:31.529Z,1.40
2024-01-28T01:39:33.984Z,1.48
2024-01-28T01:42:36.399Z,1.80
2024-01-28T01:45:38.725Z,1.73
2024-01-28T01:48:41.132Z,1.60
2024-01-28T01:51:45.548Z,1.60
2024-01-28T01:54:48.679Z,1.80
2024-01-28T01:57:51.789Z,1.40
2024-01-28T02:00:54.112Z,1.48
2024-01-28T02:03:58.895Z,1.80
2024-01-28T02:07:01.389Z,1.70
2024-01-28T02:10:07.352Z,1.55
2024-01-28T02:13:09.512Z,1.77
2024-01-28T02:16:11.704Z,1.75
2024-01-28T02:19:13.890Z,2.00
2024-01-28T02:22:16.115Z,2.22
2024-01-28T02:25:18.338Z,1.90
2024-01-28T02:28:22.545Z,1.83
2024-01-28T02:31:24.825Z,2.08
2024-01-28T02:34:27.232Z,2.33
2024-01-28T02:37:29.624Z,1.97
2024-01-28T02:40:32.938Z,1.60
2024-01-28T02:43:35.906Z,1.70
2024-01-28T02:46:38.156Z,2.03
2024-01-28T02:49:41.110Z,1.80
2024-01-28T02:52:43.397Z,2.17
2024-01-28T02:55:45.533Z,2.10
2024-01-28T02:58:47.785Z,1.70
2024-01-28T03:01:50.554Z,1.60
2024-01-28T03:04:52.848Z,1.40
2024-01-28T03:07:55.109Z,1.20
2024-01-28T03:10:57.257Z,1.77
2024-01-28T03:13:59.390Z,1.63
2024-01-28T03:17:02.203Z,1.55
2024-01-28T03:20:04.997Z,2.47
2024-01-28T03:23:07.155Z,2.00
2024-01-28T03:26:12.683Z,1.95
2024-01-28T03:29:14.858Z,1.33
2024-01-28T03:32:17.180Z,1.60
2024-01-28T03:35:19.358Z,1.38
2024-01-28T03:38:21.603Z,1.60
2024-01-28T03:41:23.766Z,1.70
2024-01-28T03:44:25.991Z,1.92
2024-01-28T03:47:28.204Z,1.85
2024-01-28T03:50:30.481Z,1.70
2024-01-28T03:53:33.012Z,2.08
2024-01-28T03:56:35.749Z,1.73
2024-01-28T03:59:41.388Z,1.47
2024-01-28T04:02:43.647Z,2.00
2024-01-28T04:05:45.911Z,1.50
2024-01-28T04:08:48.147Z,1.43
2024-01-28T04:11:50.410Z,1.70
2024-01-28T04:14:52.648Z,2.08
2024-01-28T04:17:54.887Z,2.00
2024-01-28T04:20:57.180Z,1.80
2024-01-28T04:23:59.464Z,1.85
2024-01-28T04:27:01.616Z,1.90
2024-01-28T04:30:05.397Z,1.90
2024-01-28T04:33:07.825Z,1.80
2024-01-28T04:36:10.121Z,1.67
2024-01-28T04:39:12.444Z,1.90
2024-01-28T04:42:14.697Z,1.40
2024-01-28T04:45:17.444Z,2.13
2024-01-28T04:48:20.424Z,1.55
2024-01-28T04:51:22.849Z,1.50
2024-01-28T04:54:25.122Z,1.67
2024-01-28T04:57:28.244Z,2.00
2024-01-28T05:00:30.556Z,1.50
2024-01-28T05:03:32.987Z,1.63
2024-01-28T05:06:38.375Z,1.63
2024-01-28T05:09:40.662Z,2.07
2024-01-28T05:12:42.843Z,1.23
2024-01-28T05:15:45.225Z,1.65
2024-01-28T05:18:47.631Z,1.73
2024-01-28T05:21:51.220Z,1.98
2024-01-28T05:24:55.150Z,1.73
2024-01-28T05:27:57.327Z,1.95
2024-01-28T05:30:59.532Z,1.90
2024-01-28T05:34:04.827Z,1.80
2024-01-28T05:37:07.116Z,2.00
2024-01-28T05:40:12.602Z,2.10
2024-01-28T05:43:14.775Z,2.20
2024-01-28T05:46:16.978Z,1.60
2024-01-28T05:49:19.170Z,1.70
2024-01-28T05:52:21.397Z,1.88
2024-01-28T05:55:23.591Z,1.95
2024-01-28T05:58:26.530Z,1.90
2024-01-28T06:01:28.786Z,1.90
2024-01-28T06:04:31.326Z,1.92
2024-01-28T06:07:33.586Z,2.05
2024-01-28T06:10:36.129Z,1.67
2024-01-28T06:13:38.388Z,2.00
2024-01-28T06:16:40.621Z,2.00
2024-01-28T06:19:42.924Z,1.60
2024-01-28T06:22:45.133Z,2.28
2024-01-28T06:25:47.378Z,2.13
2024-01-28T06:28:49.725Z,2.00
2024-01-28T06:31:52.010Z,2.00
2024-01-28T06:34:54.378Z,2.25
2024-01-28T06:37:56.810Z,2.15
2024-01-28T06:40:59.654Z,2.33
2024-01-28T06:44:04.545Z,2.25
2024-01-28T06:47:07.638Z,2.28
2024-01-28T06:50:10.243Z,2.17
2024-01-28T06:53:12.528Z,2.92
2024-01-28T06:56:14.920Z,2.10
2024-01-28T06:59:19.682Z,2.20
2024-01-28T07:02:25.449Z,2.20
2024-01-28T07:05:27.775Z,2.08
2024-01-28T07:08:30.135Z,2.03
2024-01-28T07:11:32.451Z,2.20
2024-01-28T07:14:34.564Z,2.35
2024-01-28T07:17:36.753Z,1.92
2024-01-28T07:20:38.938Z,2.08
2024-01-28T07:23:41.588Z,2.13
2024-01-28T07:26:44.466Z,2.33
2024-01-28T07:29:46.713Z,2.50
2024-01-28T07:32:49.097Z,2.00
2024-01-28T07:35:51.285Z,2.80
2024-01-28T07:38:53.494Z,2.22
2024-01-28T07:41:55.586Z,2.43
2024-01-28T07:44:57.827Z,2.38
2024-01-28T07:48:00.167Z,3.00
2024-01-28T07:51:02.586Z,2.25
2024-01-28T07:54:04.811Z,2.40
2024-01-28T07:57:07.558Z,2.25
2024-01-28T08:00:11.450Z,2.10
2024-01-28T08:03:16.361Z,1.90
2024-01-28T08:06:18.568Z,1.80
2024-01-28T08:09:20.901Z,2.10
2024-01-28T08:12:23.181Z,2.33
2024-01-28T08:15:25.375Z,1.70
2024-01-28T08:18:27.667Z,2.22
2024-01-28T08:21:29.947Z,2.50
2024-01-28T08:24:32.549Z,2.10
2024-01-28T08:27:34.815Z,2.85
2024-01-28T08:30:37.089Z,1.98
2024-01-28T08:33:39.332Z,2.03
2024-01-28T08:36:41.650Z,2.28
2024-01-28T08:39:43.990Z,2.38
2024-01-28T08:42:46.185Z,3.00
2024-01-28T08:45:48.500Z,2.35
2024-01-28T08:48:50.817Z,2.50
2024-01-28T08:51:53.969Z,2.35
2024-01-28T08:54:56.253Z,2.35
2024-01-28T08:57:58.638Z,2.60
2024-01-28T09:01:00.955Z,2.08
2024-01-28T09:04:03.293Z,2.13
2024-01-28T09:07:05.623Z,2.40
2024-01-28T09:10:08.346Z,2.63
2024-01-28T09:13:10.586Z,2.77
2024-01-28T09:16:12.831Z,2.00
2024-01-28T09:19:15.049Z,2.53
2024-01-28T09:22:17.296Z,1.90
2024-01-28T09:25:19.470Z,2.28
2024-01-28T09:28:21.600Z,2.63
2024-01-28T09:31:23.896Z,2.58
2024-01-28T09:34:26.538Z,2.23
2024-01-28T09:37:28.860Z,2.55
2024-01-28T09:40:31.072Z,2.00
2024-01-28T09:43:33.266Z,2.37
2024-01-28T09:46:35.700Z,2.15
2024-01-28T09:49:41.141Z,2.97
2024-01-28T09:52:43.475Z,2.80
2024-01-28T09:55:45.674Z,2.20
2024-01-28T09:58:48.511Z,2.47
2024-01-28T10:01:53.681Z,2.30
2024-01-28T10:04:57.482Z,2.40
2024-01-28T10:08:05.445Z,2.40
2024-01-28T10:11:08.066Z,2.55
2024-01-28T10:14:11.821Z,3.00
2024-01-28T10:17:14.773Z,2.20
2024-01-28T10:20:18.003Z,2.28
2024-01-28T10:23:20.236Z,2.50
2024-01-28T10:26:22.478Z,2.55
2024-01-28T10:29:26.854Z,2.10
2024-01-28T10:32:29.116Z,2.33
2024-01-28T10:35:31.383Z,2.30
2024-01-28T10:38:38.877Z,2.45
2024-01-28T10:41:44.314Z,2.25
2024-01-28T10:44:49.325Z,2.40
2024-01-28T10:47:55.886Z,2.58
2024-01-28T10:50:59.331Z,2.30
2024-01-28T10:54:05.579Z,2.25
2024-01-28T10:57:13.866Z,2.58
2024-01-28T11:00:21.923Z,2.72
2024-01-28T11:03:24.504Z,2.35
2024-01-28T11:06:33.443Z,2.60
2024-01-28T11:09:36.310Z,2.40
2024-01-28T11:12:38.632Z,2.28
2024-01-28T11:15:43.354Z,2.00
2024-01-28T11:19:07.235Z,2.20
2024-01-28T11:22:17.137Z,1.67
2024-01-28T11:25:25.456Z,1.70
2024-01-28T11:28:28.674Z,1.90
2024-01-28T11:31:37.365Z,1.80
2024-01-28T11:34:43.475Z,1.98
2024-01-28T11:37:58.779Z,1.47
2024-01-28T11:41:01.372Z,2.05
2024-01-28T11:44:04.265Z,1.60
2024-01-28T11:47:08.126Z,1.87
2024-01-28T11:50:12.828Z,1.55
2024-01-28T11:53:16.365Z,2.08
2024-01-28T11:56:18.567Z,2.00
2024-01-28T11:59:20.739Z,1.98
2024-01-28T12:02:23.502Z,1.90
2024-01-28T12:05:25.913Z,1.58
2024-01-28T12:08:28.854Z,1.90
2024-01-28T12:11:31.737Z,1.50
2024-01-28T12:14:34.289Z,1.73
2024-01-28T12:17:40.380Z,1.53
2024-01-28T12:20:42.600Z,1.70
2024-01-28T12:23:46.832Z,1.60
2024-01-28T12:26:49.022Z,1.42
2024-01-28T12:29:51.209Z,1.20
2024-01-28T12:32:53.684Z,1.77
2024-01-28T12:35:55.907Z,1.70
2024-01-28T12:38:58.150Z,1.40
2024-01-28T12:42:00.415Z,1.38
2024-01-28T12:45:02.712Z,1.20
2024-01-28T12:48:05.679Z,1.73
2024-01-28T12:51:08.355Z,1.50
2024-01-28T12:54:10.738Z,1.25
2024-01-28T12:57:14.614Z,1.52
2024-01-28T13:00:18.336Z,1.90
2024-01-28T13:03:21.486Z,1.40
2024-01-28T13:06:27.040Z,1.67
2024-01-28T13:09:30.072Z,1.50
2024-01-28T13:12:38.211Z,1.77
2024-01-28T13:15:40.478Z,1.63
2024-01-28T13:18:44.607Z,1.90
2024-01-28T13:21:47.249Z,1.50
2024-01-28T13:24:53.685Z,1.60
2024-01-28T13:27:56.112Z,1.67
2024-01-28T13:30:59.486Z,2.10
2024-01-28T13:34:02.001Z,1.73
2024-01-28T13:37:07.490Z,1.60
2024-01-28T13:40:10.303Z,1.43
2024-01-28T13:43:12.535Z,1.67
2024-01-28T13:46:15.066Z,1.88
2024-01-28T13:49:17.389Z,1.50
2024-01-28T13:52:19.613Z,1.90
2024-01-28T13:55:21.831Z,1.70
2024-01-28T13:58:23.974Z,1.65
2024-01-28T14:01:29.692Z,1.67
2024-01-28T14:04:32.225Z,1.60
2024-01-28T14:07:34.495Z,1.73
2024-01-28T14:10:36.712Z,1.23
2024-01-28T14:13:38.958Z,1.33
2024-01-28T14:16:41.151Z,1.92
2024-01-28T14:19:43.489Z,1.57
2024-01-28T14:22:45.709Z,1.50
2024-01-28T14:25:49.316Z,1.80
2024-01-28T14:28:53.915Z,1.83
2024-01-28T14:31:56.053Z,1.38
2024-01-28T14:34:58.357Z,1.52
2024-01-28T14:38:00.642Z,1.90
2024-01-28T14:41:02.868Z,1.30
2024-01-28T14:44:05.834Z,1.70
2024-01-28T14:47:08.642Z,1.50
2024-01-28T14:50:11.123Z,1.47
2024-01-28T14:53:13.335Z,1.27
2024-01-28T14:56:15.590Z,1.52
2024-01-28T14:59:17.774Z,1.55
2024-01-28T15:02:20.830Z,1.70
2024-01-28T15:05:23.175Z,1.83
2024-01-28T15:08:25.350Z,1.60
2024-01-28T15:11:27.529Z,1.70
2024-01-28T15:14:29.777Z,1.52
2024-01-28T15:17:31.983Z,1.60
2024-01-28T15:20:34.159Z,1.60
2024-01-28T15:23:39.029Z,2.10
2024-01-28T15:26:41.555Z,1.80
2024-01-28T15:29:46.612Z,1.77
2024-01-28T15:32:48.987Z,2.03
2024-01-28T15:35:53.670Z,2.10
2024-01-28T15:38:55.791Z,2.38
2024-01-28T15:41:58.462Z,1.97
2024-01-28T15:45:00.805Z,2.10
2024-01-28T15:48:03.484Z,2.08
2024-01-28T15:51:05.886Z,2.20
2024-01-28T15:54:10.228Z,1.95
2024-01-28T15:57:12.632Z,2.10
2024-01-28T16:00:15.310Z,2.40
2024-01-28T16:03:17.572Z,2.33
2024-01-28T16:06:19.900Z,2.03
2024-01-28T16:09:22.270Z,2.33
2024-01-28T16:12:25.500Z,2.10
2024-01-28T16:15:28.295Z,1.80
2024-01-28T16:18:30.802Z,2.13
2024-01-28T16:21:33.134Z,1.90
2024-01-28T16:24:35.438Z,2.00
2024-01-28T16:27:37.885Z,2.45
2024-01-28T16:30:40.398Z,2.60
2024-01-28T16:33:42.593Z,2.10
2024-01-28T16:36:45.003Z,2.30
2024-01-28T16:39:49.376Z,2.58
2024-01-28T16:42:51.817Z,2.27
2024-01-28T16:45:54.072Z,4.40
2024-01-28T16:48:56.428Z,3.53
2024-01-28T16:51:59.133Z,4.47
2024-01-28T16:55:01.407Z,5.53
2024-01-28T16:58:05.158Z,7.15
2024-01-28T17:01:10.194Z,4.80
2024-01-28T17:04:12.552Z,6.28
2024-01-28T17:07:14.861Z,5.63
2024-01-28T17:10:17.299Z,5.30
2024-01-28T17:13:19.483Z,4.47
2024-01-28T17:16:21.916Z,4.40
2024-01-28T17:19:24.101Z,4.30
2024-01-28T17:22:26.398Z,4.57
2024-01-28T17:25:29.570Z,5.32
2024-01-28T17:28:31.796Z,5.55
2024-01-28T17:31:35.755Z,5.68
2024-01-28T17:34:38.851Z,5.55
2024-01-28T17:37:42.747Z,12.15
2024-01-28T17:40:45.376Z,12.60
2024-01-28T17:43:50.700Z,12.93
2024-01-28T17:46:53.711Z,12.80
2024-01-28T17:49:56.035Z,11.35
2024-01-28T17:53:01.312Z,12.03
2024-01-28T17:56:03.674Z,10.90
2024-01-28T17:59:05.871Z,12.52
2024-01-28T18:02:08.119Z,12.05
2024-01-28T18:05:10.461Z,11.85
2024-01-28T18:08:12.638Z,11.65
2024-01-28T18:11:16.701Z,10.77
2024-01-28T18:14:18.886Z,10.90
2024-01-28T18:17:21.216Z,11.18
2024-01-28T18:20:24.744Z,10.50
2024-01-28T18:23:26.992Z,10.90
2024-01-28T18:26:29.856Z,11.25
2024-01-28T18:29:32.852Z,11.70
2024-01-28T18:32:35.126Z,13.65
2024-01-28T18:35:37.349Z,14.05
2024-01-28T18:38:40.013Z,11.95
2024-01-28T18:41:42.189Z,15.90
2024-01-28T18:44:46.261Z,16.43
2024-01-28T18:47:48.556Z,20.45
2024-01-28T18:50:52.124Z,17.95
2024-01-28T18:53:54.817Z,18.13
2024-01-28T18:56:57.015Z,19.15
2024-01-28T18:59:59.144Z,17.23
2024-01-28T19:03:07.043Z,17.30
2024-01-28T19:06:10.575Z,17.40
2024-01-28T19:09:14.115Z,16.52
2024-01-28T19:12:16.681Z,16.13
2024-01-28T19:15:19.012Z,15.63
2024-01-28T19:18:23.644Z,16.63
2024-01-28T19:21:25.944Z,15.65
2024-01-28T19:24:28.253Z,16.23
2024-01-28T19:27:30.568Z,15.18
2024-01-28T19:30:32.811Z,15.10
2024-01-28T19:33:35.367Z,15.40
2024-01-28T19:36:37.764Z,15.40
2024-01-28T19:39:41.119Z,15.48
2024-01-28T19:42:43.434Z,16.88
2024-01-28T19:45:48.007Z,15.43
2024-01-28T19:48:50.352Z,16.50
2024-01-28T19:51:52.648Z,15.43
2024-01-28T19:54:55.087Z,15.37
2024-01-28T19:57:57.441Z,15.30
2024-01-28T20:00:59.765Z,15.70
2024-01-28T20:04:02.203Z,16.55
2024-01-28T20:07:04.613Z,16.90
2024-01-28T20:10:08.439Z,17.08
2024-01-28T20:13:10.669Z,16.63
2024-01-28T20:16:12.908Z,15.90
2024-01-28T20:19:18.534Z,16.38
2024-01-28T20:22:20.765Z,15.82
2024-01-28T20:25:22.946Z,17.00
2024-01-28T20:28:25.234Z,17.17
2024-01-28T20:31:27.730Z,19.00
2024-01-28T20:34:29.960Z,17.05
2024-01-28T20:37:32.250Z,17.42
2024-01-28T20:40:34.811Z,17.00
2024-01-28T20:43:37.060Z,16.65
2024-01-28T20:46:41.825Z,17.67
2024-01-28T20:49:44.519Z,16.67
2024-01-28T20:52:46.726Z,17.33
2024-01-28T20:55:49.344Z,16.20
2024-01-28T20:58:51.642Z,15.95
2024-01-28T21:01:54.113Z,17.30
2024-01-28T21:04:56.355Z,16.90
2024-01-28T21:07:58.925Z,16.30
2024-01-28T21:11:08.450Z,16.95
2024-01-28T21:14:11.576Z,16.10
2024-01-28T21:17:13.787Z,15.43
2024-01-28T21:20:15.984Z,14.82
2024-01-28T21:23:22.804Z,14.27
2024-01-28T21:26:25.011Z,13.77
2024-01-28T21:29:32.961Z,13.82
2024-01-28T21:32:35.308Z,13.43
2024-01-28T21:35:37.577Z,12.90
2024-01-28T21:38:39.780Z,12.48
2024-01-28T21:41:42.039Z,12.32
2024-01-28T21:44:44.424Z,12.32
2024-01-28T21:47:46.584Z,11.73
2024-01-28T21:50:48.823Z,11.73
2024-01-28T21:53:51.054Z,11.13
2024-01-28T21:56:55.925Z,11.10
2024-01-28T21:59:58.082Z,10.60
2024-01-28T22:03:00.381Z,10.63
2024-01-28T22:06:02.911Z,10.70
2024-01-28T22:09:05.194Z,10.43
2024-01-28T22:12:07.950Z,10.68
2024-01-28T22:15:10.357Z,9.98
2024-01-28T22:18:12.545Z,10.10
2024-01-28T22:21:16.109Z,10.38
2024-01-28T22:24:18.725Z,9.38
2024-01-28T22:27:21.380Z,9.50
2024-01-28T22:30:24.935Z,9.18
2024-01-28T22:33:27.420Z,9.27
2024-01-28T22:36:29.767Z,8.88
2024-01-28T22:39:32.488Z,9.10
2024-01-28T22:42:34.732Z,8.68
2024-01-28T22:45:36.941Z,8.43
2024-01-28T22:48:39.284Z,7.93
2024-01-28T22:51:41.652Z,7.82
2024-01-28T22:54:43.974Z,7.97
2024-01-28T22:57:46.150Z,8.13
2024-01-28T23:00:48.460Z,8.35
2024-01-28T23:03:50.866Z,7.72
2024-01-28T23:06:53.267Z,8.45
2024-01-28T23:09:55.527Z,8.07
2024-01-28T23:12:58.314Z,7.88
2024-01-28T23:16:00.465Z,8.50
2024-01-28T23:19:02.888Z,7.30
2024-01-28T23:22:05.234Z,8.30
2024-01-28T23:25:07.470Z,7.85
2024-01-28T23:28:09.770Z,8.53
2024-01-28T23:31:12.005Z,7.47
2024-01-28T23:34:15.814Z,8.00
2024-01-28T23:37:18.534Z,7.75
2024-01-28T23:40:20.710Z,8.27
2024-01-28T23:43:22.814Z,8.23
2024-01-28T23:46:24.944Z,7.00
2024-01-28T23:49:27.218Z,7.43
2024-01-28T23:52:29.522Z,7.47
2024-01-28T23:55:31.685Z,8.00
2024-01-28T23:58:33.864Z,7.53
